92B weather

Long Lake Seaplane Base
Sinclair, Maine, United States

Public forecast

Using degrees Fahrenheit for public forecast. Weather courtesy of forecast.io.

Closest aviation weather report (METAR) to Long Lake Seaplane Base

Closest report is Northern Aroostook Regional Airport, 6.5 nm (12.0 km) NNW. Retrieved 2019/10/23 07:53 UTC (1 hour ago):

KFVE 230753Z AUTO 10013G20KT 10SM CLR 05/03 A3004 RMK AO2 SLP175 T00500028

Closest aviation forecast (TAF) to Long Lake Seaplane Base

Closest forecast is Northern Aroostook Regional Airport, 6.5 nm (12.0 km) NNW. Retrieved 2019/10/23 06:39 UTC (2 hours ago):

TAF KFVE 230535Z 2306/2406 10005KT P6SM OVC080 FM230700 12010G18KT P6SM OVC020 FM231000 11012G22KT 3SM -RA BR OVC015 FM231400 10012G22KT 1SM RA BR OVC006 FM232000 28010G18KT 3SM -RA BR OVC004 FM232200 26005KT P6SM VCSH OVC005 FM240000 27006KT P6SM BKN012